sensor_id;sensor_type;location;lat;lon;timestamp;P1;P2;P0
64138;PMS5003;50435;43.700;-79.318;2023-06-10T00:01:26;37;35;
64138;PMS5003;50435;43.700;-79.318;2023-06-10T00:03:53;36;34;
64138;PMS5003;50435;43.700;-79.318;2023-06-10T00:06:20;35;34;
64138;PMS5003;50435;43.700;-79.318;2023-06-10T00:08:48;36;36;
64138;PMS5003;50435;43.700;-79.318;2023-06-10T00:11:16;41;34;
64138;PMS5003;50435;43.700;-79.318;2023-06-10T00:13:43;40;36;
64138;PMS5003;50435;43.700;-79.318;2023-06-10T00:16:11;33;33;
64138;PMS5003;50435;43.700;-79.318;2023-06-10T00:18:39;47;41;
64138;PMS5003;50435;43.700;-79.318;2023-06-10T00:21:06;35;33;
64138;PMS5003;50435;43.700;-79.318;2023-06-10T00:23:34;38;37;
64138;PMS5003;50435;43.700;-79.318;2023-06-10T00:26:01;42;35;
64138;PMS5003;50435;43.700;-79.318;2023-06-10T00:28:29;42;38;
64138;PMS5003;50435;43.700;-79.318;2023-06-10T00:30:57;39;38;
64138;PMS5003;50435;43.700;-79.318;2023-06-10T00:33:24;40;37;
64138;PMS5003;50435;43.700;-79.318;2023-06-10T00:35:51;44;41;
64138;PMS5003;50435;43.700;-79.318;2023-06-10T00:38:18;40;37;
64138;PMS5003;50435;43.700;-79.318;2023-06-10T00:40:46;38;37;
64138;PMS5003;50435;43.700;-79.318;2023-06-10T00:43:13;41;39;
64138;PMS5003;50435;43.700;-79.318;2023-06-10T00:45:41;47;43;
64138;PMS5003;50435;43.700;-79.318;2023-06-10T00:48:08;43;39;
64138;PMS5003;50435;43.700;-79.318;2023-06-10T00:50:36;42;38;
64138;PMS5003;50435;43.700;-79.318;2023-06-10T00:53:03;40;39;
64138;PMS5003;50435;43.700;-79.318;2023-06-10T00:55:31;38;37;
64138;PMS5003;50435;43.700;-79.318;2023-06-10T00:57:59;43;41;
64138;PMS5003;50435;43.700;-79.318;2023-06-10T01:00:27;34;34;
64138;PMS5003;50435;43.700;-79.318;2023-06-10T01:02:55;39;35;
64138;PMS5003;50435;43.700;-79.318;2023-06-10T01:05:23;44;37;
64138;PMS5003;50435;43.700;-79.318;2023-06-10T01:07:55;40;36;
64138;PMS5003;50435;43.700;-79.318;2023-06-10T01:10:29;40;39;
64138;PMS5003;50435;43.700;-79.318;2023-06-10T01:13:03;42;37;
64138;PMS5003;50435;43.700;-79.318;2023-06-10T01:15:33;41;37;
64138;PMS5003;50435;43.700;-79.318;2023-06-10T01:18:03;36;35;
64138;PMS5003;50435;43.700;-79.318;2023-06-10T01:20:31;40;39;
64138;PMS5003;50435;43.700;-79.318;2023-06-10T01:22:59;39;36;
64138;PMS5003;50435;43.700;-79.318;2023-06-10T01:25:28;41;36;
64138;PMS5003;50435;43.700;-79.318;2023-06-10T01:27:58;34;34;
64138;PMS5003;50435;43.700;-79.318;2023-06-10T01:30:41;35;34;
64138;PMS5003;50435;43.700;-79.318;2023-06-10T01:33:16;41;40;
64138;PMS5003;50435;43.700;-79.318;2023-06-10T01:35:49;38;37;
64138;PMS5003;50435;43.700;-79.318;2023-06-10T01:38:17;40;40;
64138;PMS5003;50435;43.700;-79.318;2023-06-10T01:40:47;34;30;
64138;PMS5003;50435;43.700;-79.318;2023-06-10T01:43:15;39;36;
64138;PMS5003;50435;43.700;-79.318;2023-06-10T01:45:43;39;38;
64138;PMS5003;50435;43.700;-79.318;2023-06-10T01:48:10;40;38;
64138;PMS5003;50435;43.700;-79.318;2023-06-10T01:50:38;43;38;
64138;PMS5003;50435;43.700;-79.318;2023-06-10T01:53:05;45;37;
64138;PMS5003;50435;43.700;-79.318;2023-06-10T01:55:33;40;37;
64138;PMS5003;50435;43.700;-79.318;2023-06-10T01:58:01;41;41;
64138;PMS5003;50435;43.700;-79.318;2023-06-10T02:00:28;44;39;
64138;PMS5003;50435;43.700;-79.318;2023-06-10T02:02:55;44;39;
64138;PMS5003;50435;43.700;-79.318;2023-06-10T02:05:23;37;37;
64138;PMS5003;50435;43.700;-79.318;2023-06-10T02:07:51;42;39;
64138;PMS5003;50435;43.700;-79.318;2023-06-10T02:10:18;43;41;
64138;PMS5003;50435;43.700;-79.318;2023-06-10T02:12:46;38;37;
64138;PMS5003;50435;43.700;-79.318;2023-06-10T02:15:13;47;43;
64138;PMS5003;50435;43.700;-79.318;2023-06-10T02:17:40;44;39;
64138;PMS5003;50435;43.700;-79.318;2023-06-10T02:20:08;41;40;
64138;PMS5003;50435;43.700;-79.318;2023-06-10T02:22:36;47;44;
64138;PMS5003;50435;43.700;-79.318;2023-06-10T02:25:05;45;39;
64138;PMS5003;50435;43.700;-79.318;2023-06-10T02:27:33;50;44;
64138;PMS5003;50435;43.700;-79.318;2023-06-10T02:30:00;39;39;
64138;PMS5003;50435;43.700;-79.318;2023-06-10T02:32:28;45;43;
64138;PMS5003;50435;43.700;-79.318;2023-06-10T02:34:56;46;42;
64138;PMS5003;50435;43.700;-79.318;2023-06-10T02:37:23;45;42;
64138;PMS5003;50435;43.700;-79.318;2023-06-10T02:39:51;48;48;
64138;PMS5003;50435;43.700;-79.318;2023-06-10T02:42:18;51;48;
64138;PMS5003;50435;43.700;-79.318;2023-06-10T02:44:45;49;45;
64138;PMS5003;50435;43.700;-79.318;2023-06-10T02:47:13;47;45;
64138;PMS5003;50435;43.700;-79.318;2023-06-10T02:49:40;55;51;
64138;PMS5003;50435;43.700;-79.318;2023-06-10T02:52:07;50;50;
64138;PMS5003;50435;43.700;-79.318;2023-06-10T02:54:35;51;49;
64138;PMS5003;50435;43.700;-79.318;2023-06-10T02:57:03;50;49;
64138;PMS5003;50435;43.700;-79.318;2023-06-10T02:59:30;55;52;
64138;PMS5003;50435;43.700;-79.318;2023-06-10T03:01:58;50;49;
64138;PMS5003;50435;43.700;-79.318;2023-06-10T03:04:26;59;52;
64138;PMS5003;50435;43.700;-79.318;2023-06-10T03:06:53;55;55;
64138;PMS5003;50435;43.700;-79.318;2023-06-10T03:09:20;60;52;
64138;PMS5003;50435;43.700;-79.318;2023-06-10T03:11:48;53;50;
64138;PMS5003;50435;43.700;-79.318;2023-06-10T03:14:15;62;56;
64138;PMS5003;50435;43.700;-79.318;2023-06-10T03:16:43;60;56;
64138;PMS5003;50435;43.700;-79.318;2023-06-10T03:19:10;65;56;
64138;PMS5003;50435;43.700;-79.318;2023-06-10T03:21:38;59;56;
64138;PMS5003;50435;43.700;-79.318;2023-06-10T03:24:05;59;56;
64138;PMS5003;50435;43.700;-79.318;2023-06-10T03:26:32;55;50;
64138;PMS5003;50435;43.700;-79.318;2023-06-10T03:29:00;57;54;
64138;PMS5003;50435;43.700;-79.318;2023-06-10T03:31:27;61;60;
64138;PMS5003;50435;43.700;-79.318;2023-06-10T03:33:54;55;53;
64138;PMS5003;50435;43.700;-79.318;2023-06-10T03:36:22;61;60;
64138;PMS5003;50435;43.700;-79.318;2023-06-10T03:38:49;63;59;
64138;PMS5003;50435;43.700;-79.318;2023-06-10T03:41:17;59;56;
64138;PMS5003;50435;43.700;-79.318;2023-06-10T03:43:45;62;60;
64138;PMS5003;50435;43.700;-79.318;2023-06-10T03:46:12;61;54;
64138;PMS5003;50435;43.700;-79.318;2023-06-10T03:48:39;65;58;
64138;PMS5003;50435;43.700;-79.318;2023-06-10T03:51:07;65;59;
64138;PMS5003;50435;43.700;-79.318;2023-06-10T03:53:34;62;56;
64138;PMS5003;50435;43.700;-79.318;2023-06-10T03:56:01;61;57;
64138;PMS5003;50435;43.700;-79.318;2023-06-10T03:58:29;60;53;
64138;PMS5003;50435;43.700;-79.318;2023-06-10T04:00:57;64;57;
64138;PMS5003;50435;43.700;-79.318;2023-06-10T04:03:24;68;67;
64138;PMS5003;50435;43.700;-79.318;2023-06-10T04:05:51;66;62;
64138;PMS5003;50435;43.700;-79.318;2023-06-10T04:08:19;67;60;
64138;PMS5003;50435;43.700;-79.318;2023-06-10T04:10:46;61;57;
64138;PMS5003;50435;43.700;-79.318;2023-06-10T04:13:14;59;56;
64138;PMS5003;50435;43.700;-79.318;2023-06-10T04:15:41;64;60;
64138;PMS5003;50435;43.700;-79.318;2023-06-10T04:18:09;62;58;
64138;PMS5003;50435;43.700;-79.318;2023-06-10T04:20:36;60;58;
64138;PMS5003;50435;43.700;-79.318;2023-06-10T04:23:04;65;58;
64138;PMS5003;50435;43.700;-79.318;2023-06-10T04:25:31;64;62;
64138;PMS5003;50435;43.700;-79.318;2023-06-10T04:27:59;64;59;
64138;PMS5003;50435;43.700;-79.318;2023-06-10T04:30:26;62;59;
64138;PMS5003;50435;43.700;-79.318;2023-06-10T04:32:54;67;62;
64138;PMS5003;50435;43.700;-79.318;2023-06-10T04:35:21;62;59;
64138;PMS5003;50435;43.700;-79.318;2023-06-10T04:37:49;69;63;
64138;PMS5003;50435;43.700;-79.318;2023-06-10T04:40:16;61;59;
64138;PMS5003;50435;43.700;-79.318;2023-06-10T04:42:44;66;61;
64138;PMS5003;50435;43.700;-79.318;2023-06-10T04:45:12;71;63;
64138;PMS5003;50435;43.700;-79.318;2023-06-10T04:47:40;62;60;
64138;PMS5003;50435;43.700;-79.318;2023-06-10T04:50:08;65;60;
64138;PMS5003;50435;43.700;-79.318;2023-06-10T04:52:35;60;57;
64138;PMS5003;50435;43.700;-79.318;2023-06-10T04:55:03;65;63;
64138;PMS5003;50435;43.700;-79.318;2023-06-10T04:57:31;62;56;
64138;PMS5003;50435;43.700;-79.318;2023-06-10T04:59:59;64;63;
64138;PMS5003;50435;43.700;-79.318;2023-06-10T05:02:27;58;55;
64138;PMS5003;50435;43.700;-79.318;2023-06-10T05:04:54;61;56;
64138;PMS5003;50435;43.700;-79.318;2023-06-10T05:07:21;70;62;
64138;PMS5003;50435;43.700;-79.318;2023-06-10T05:09:49;63;59;
64138;PMS5003;50435;43.700;-79.318;2023-06-10T05:12:16;74;65;
64138;PMS5003;50435;43.700;-79.318;2023-06-10T05:14:43;68;67;
64138;PMS5003;50435;43.700;-79.318;2023-06-10T05:17:11;69;63;
64138;PMS5003;50435;43.700;-79.318;2023-06-10T05:19:38;62;62;
64138;PMS5003;50435;43.700;-79.318;2023-06-10T05:22:05;60;58;
64138;PMS5003;50435;43.700;-79.318;2023-06-10T05:24:32;69;66;
64138;PMS5003;50435;43.700;-79.318;2023-06-10T05:27:00;67;63;
64138;PMS5003;50435;43.700;-79.318;2023-06-10T05:29:28;67;64;
64138;PMS5003;50435;43.700;-79.318;2023-06-10T05:31:55;64;60;
64138;PMS5003;50435;43.700;-79.318;2023-06-10T05:34:23;67;62;
64138;PMS5003;50435;43.700;-79.318;2023-06-10T05:36:51;70;64;
64138;PMS5003;50435;43.700;-79.318;2023-06-10T05:39:18;59;55;
64138;PMS5003;50435;43.700;-79.318;2023-06-10T05:41:46;67;62;
64138;PMS5003;50435;43.700;-79.318;2023-06-10T05:44:13;66;62;
64138;PMS5003;50435;43.700;-79.318;2023-06-10T05:46:41;64;62;
64138;PMS5003;50435;43.700;-79.318;2023-06-10T05:49:08;65;61;
64138;PMS5003;50435;43.700;-79.318;2023-06-10T05:51:36;67;65;
64138;PMS5003;50435;43.700;-79.318;2023-06-10T05:54:04;66;61;
64138;PMS5003;50435;43.700;-79.318;2023-06-10T05:56:32;65;64;
64138;PMS5003;50435;43.700;-79.318;2023-06-10T05:58:59;70;66;
64138;PMS5003;50435;43.700;-79.318;2023-06-10T06:01:28;68;62;
64138;PMS5003;50435;43.700;-79.318;2023-06-10T06:03:55;63;60;
64138;PMS5003;50435;43.700;-79.318;2023-06-10T06:06:23;63;60;
64138;PMS5003;50435;43.700;-79.318;2023-06-10T06:08:51;62;59;
64138;PMS5003;50435;43.700;-79.318;2023-06-10T06:11:18;73;67;
64138;PMS5003;50435;43.700;-79.318;2023-06-10T06:13:46;69;64;
64138;PMS5003;50435;43.700;-79.318;2023-06-10T06:16:14;68;65;
64138;PMS5003;50435;43.700;-79.318;2023-06-10T06:18:41;64;62;
64138;PMS5003;50435;43.700;-79.318;2023-06-10T06:21:08;58;57;
64138;PMS5003;50435;43.700;-79.318;2023-06-10T06:23:36;72;62;
64138;PMS5003;50435;43.700;-79.318;2023-06-10T06:26:04;67;65;
64138;PMS5003;50435;43.700;-79.318;2023-06-10T06:28:31;64;60;
64138;PMS5003;50435;43.700;-79.318;2023-06-10T06:30:59;64;63;
64138;PMS5003;50435;43.700;-79.318;2023-06-10T06:33:26;68;63;
64138;PMS5003;50435;43.700;-79.318;2023-06-10T06:35:54;66;59;
64138;PMS5003;50435;43.700;-79.318;2023-06-10T06:38:21;62;60;
64138;PMS5003;50435;43.700;-79.318;2023-06-10T06:40:48;70;68;
64138;PMS5003;50435;43.700;-79.318;2023-06-10T06:43:16;61;59;
64138;PMS5003;50435;43.700;-79.318;2023-06-10T06:45:43;65;62;
64138;PMS5003;50435;43.700;-79.318;2023-06-10T06:48:12;66;58;
64138;PMS5003;50435;43.700;-79.318;2023-06-10T06:50:39;65;62;
64138;PMS5003;50435;43.700;-79.318;2023-06-10T06:53:07;66;60;
64138;PMS5003;50435;43.700;-79.318;2023-06-10T06:55:35;63;61;
64138;PMS5003;50435;43.700;-79.318;2023-06-10T06:58:02;59;57;
64138;PMS5003;50435;43.700;-79.318;2023-06-10T07:00:29;70;61;
64138;PMS5003;50435;43.700;-79.318;2023-06-10T07:02:57;71;64;
64138;PMS5003;50435;43.700;-79.318;2023-06-10T07:05:25;66;62;
64138;PMS5003;50435;43.700;-79.318;2023-06-10T07:07:53;69;64;
64138;PMS5003;50435;43.700;-79.318;2023-06-10T07:10:21;64;57;
64138;PMS5003;50435;43.700;-79.318;2023-06-10T07:12:48;63;58;
64138;PMS5003;50435;43.700;-79.318;2023-06-10T07:15:16;67;58;
64138;PMS5003;50435;43.700;-79.318;2023-06-10T07:17:43;60;57;
64138;PMS5003;50435;43.700;-79.318;2023-06-10T07:20:11;67;62;
64138;PMS5003;50435;43.700;-79.318;2023-06-10T07:22:39;69;63;
64138;PMS5003;50435;43.700;-79.318;2023-06-10T07:25:07;64;61;
64138;PMS5003;50435;43.700;-79.318;2023-06-10T07:27:35;67;61;
64138;PMS5003;50435;43.700;-79.318;2023-06-10T07:30:03;66;62;
64138;PMS5003;50435;43.700;-79.318;2023-06-10T07:32:32;66;60;
64138;PMS5003;50435;43.700;-79.318;2023-06-10T07:34:59;61;58;
64138;PMS5003;50435;43.700;-79.318;2023-06-10T07:37:27;67;59;
64138;PMS5003;50435;43.700;-79.318;2023-06-10T07:39:55;59;56;
64138;PMS5003;50435;43.700;-79.318;2023-06-10T07:42:23;66;60;
64138;PMS5003;50435;43.700;-79.318;2023-06-10T07:44:51;63;61;
64138;PMS5003;50435;43.700;-79.318;2023-06-10T07:47:18;65;62;
64138;PMS5003;50435;43.700;-79.318;2023-06-10T07:49:45;65;63;
64138;PMS5003;50435;43.700;-79.318;2023-06-10T07:52:13;63;59;
64138;PMS5003;50435;43.700;-79.318;2023-06-10T07:54:40;57;56;
64138;PMS5003;50435;43.700;-79.318;2023-06-10T07:57:08;67;59;
64138;PMS5003;50435;43.700;-79.318;2023-06-10T07:59:35;67;66;
64138;PMS5003;50435;43.700;-79.318;2023-06-10T08:02:02;66;62;
64138;PMS5003;50435;43.700;-79.318;2023-06-10T08:04:31;67;63;
64138;PMS5003;50435;43.700;-79.318;2023-06-10T08:06:58;63;61;
64138;PMS5003;50435;43.700;-79.318;2023-06-10T08:09:26;68;66;
64138;PMS5003;50435;43.700;-79.318;2023-06-10T08:11:53;70;66;
64138;PMS5003;50435;43.700;-79.318;2023-06-10T08:14:21;63;60;
64138;PMS5003;50435;43.700;-79.318;2023-06-10T08:16:48;57;55;
64138;PMS5003;50435;43.700;-79.318;2023-06-10T08:19:15;75;70;
64138;PMS5003;50435;43.700;-79.318;2023-06-10T08:21:43;67;64;
64138;PMS5003;50435;43.700;-79.318;2023-06-10T08:24:10;63;60;
64138;PMS5003;50435;43.700;-79.318;2023-06-10T08:26:38;66;65;
64138;PMS5003;50435;43.700;-79.318;2023-06-10T08:29:05;65;63;
64138;PMS5003;50435;43.700;-79.318;2023-06-10T08:31:33;65;61;
64138;PMS5003;50435;43.700;-79.318;2023-06-10T08:34:00;64;59;
64138;PMS5003;50435;43.700;-79.318;2023-06-10T08:36:28;74;70;
64138;PMS5003;50435;43.700;-79.318;2023-06-10T08:38:56;69;63;
64138;PMS5003;50435;43.700;-79.318;2023-06-10T08:41:23;68;65;
64138;PMS5003;50435;43.700;-79.318;2023-06-10T08:43:57;72;61;
64138;PMS5003;50435;43.700;-79.318;2023-06-10T08:46:31;69;63;
64138;PMS5003;50435;43.700;-79.318;2023-06-10T08:49:00;66;61;
64138;PMS5003;50435;43.700;-79.318;2023-06-10T08:51:30;69;64;
64138;PMS5003;50435;43.700;-79.318;2023-06-10T08:54:01;64;59;
64138;PMS5003;50435;43.700;-79.318;2023-06-10T08:56:30;66;61;
64138;PMS5003;50435;43.700;-79.318;2023-06-10T08:59:04;62;57;
64138;PMS5003;50435;43.700;-79.318;2023-06-10T09:01:32;66;61;
64138;PMS5003;50435;43.700;-79.318;2023-06-10T09:04:01;69;65;
64138;PMS5003;50435;43.700;-79.318;2023-06-10T09:06:29;62;60;
64138;PMS5003;50435;43.700;-79.318;2023-06-10T09:08:59;69;65;
64138;PMS5003;50435;43.700;-79.318;2023-06-10T09:11:27;67;62;
64138;PMS5003;50435;43.700;-79.318;2023-06-10T09:13:55;71;65;
64138;PMS5003;50435;43.700;-79.318;2023-06-10T09:16:22;67;64;
64138;PMS5003;50435;43.700;-79.318;2023-06-10T09:18:50;65;59;
64138;PMS5003;50435;43.700;-79.318;2023-06-10T09:21:19;67;62;
64138;PMS5003;50435;43.700;-79.318;2023-06-10T09:23:46;69;62;
64138;PMS5003;50435;43.700;-79.318;2023-06-10T09:26:14;68;62;
64138;PMS5003;50435;43.700;-79.318;2023-06-10T09:28:43;67;61;
64138;PMS5003;50435;43.700;-79.318;2023-06-10T09:31:11;69;61;
64138;PMS5003;50435;43.700;-79.318;2023-06-10T09:33:39;71;64;
64138;PMS5003;50435;43.700;-79.318;2023-06-10T09:36:07;57;51;
64138;PMS5003;50435;43.700;-79.318;2023-06-10T09:38:34;68;59;
64138;PMS5003;50435;43.700;-79.318;2023-06-10T09:41:02;65;58;
64138;PMS5003;50435;43.700;-79.318;2023-06-10T09:43:38;65;61;
64138;PMS5003;50435;43.700;-79.318;2023-06-10T09:46:13;62;60;
64138;PMS5003;50435;43.700;-79.318;2023-06-10T09:48:42;62;62;
64138;PMS5003;50435;43.700;-79.318;2023-06-10T09:51:10;58;58;
64138;PMS5003;50435;43.700;-79.318;2023-06-10T09:53:38;58;58;
64138;PMS5003;50435;43.700;-79.318;2023-06-10T09:56:05;63;61;
64138;PMS5003;50435;43.700;-79.318;2023-06-10T09:58:34;64;58;
64138;PMS5003;50435;43.700;-79.318;2023-06-10T10:01:05;61;58;
64138;PMS5003;50435;43.700;-79.318;2023-06-10T10:03:33;66;57;
64138;PMS5003;50435;43.700;-79.318;2023-06-10T10:06:00;63;55;
64138;PMS5003;50435;43.700;-79.318;2023-06-10T10:08:28;63;58;
64138;PMS5003;50435;43.700;-79.318;2023-06-10T10:10:56;63;61;
64138;PMS5003;50435;43.700;-79.318;2023-06-10T10:13:24;64;61;
64138;PMS5003;50435;43.700;-79.318;2023-06-10T10:15:55;58;54;
64138;PMS5003;50435;43.700;-79.318;2023-06-10T10:18:26;62;61;
64138;PMS5003;50435;43.700;-79.318;2023-06-10T10:20:58;60;57;
64138;PMS5003;50435;43.700;-79.318;2023-06-10T10:23:32;70;63;
64138;PMS5003;50435;43.700;-79.318;2023-06-10T10:26:07;71;57;
64138;PMS5003;50435;43.700;-79.318;2023-06-10T10:28:38;65;61;
64138;PMS5003;50435;43.700;-79.318;2023-06-10T10:31:10;62;55;
64138;PMS5003;50435;43.700;-79.318;2023-06-10T10:33:45;60;57;
64138;PMS5003;50435;43.700;-79.318;2023-06-10T10:36:18;57;55;
64138;PMS5003;50435;43.700;-79.318;2023-06-10T10:38:47;68;62;
64138;PMS5003;50435;43.700;-79.318;2023-06-10T10:41:15;62;58;
64138;PMS5003;50435;43.700;-79.318;2023-06-10T10:43:43;66;55;
64138;PMS5003;50435;43.700;-79.318;2023-06-10T10:46:12;61;61;
64138;PMS5003;50435;43.700;-79.318;2023-06-10T10:48:41;63;62;
64138;PMS5003;50435;43.700;-79.318;2023-06-10T10:51:09;60;56;
64138;PMS5003;50435;43.700;-79.318;2023-06-10T10:53:38;60;58;
64138;PMS5003;50435;43.700;-79.318;2023-06-10T10:56:07;67;60;
64138;PMS5003;50435;43.700;-79.318;2023-06-10T10:58:39;59;56;
64138;PMS5003;50435;43.700;-79.318;2023-06-10T11:01:10;58;53;
64138;PMS5003;50435;43.700;-79.318;2023-06-10T11:03:42;60;59;
64138;PMS5003;50435;43.700;-79.318;2023-06-10T11:06:12;54;50;
64138;PMS5003;50435;43.700;-79.318;2023-06-10T11:08:49;55;53;
64138;PMS5003;50435;43.700;-79.318;2023-06-10T11:11:18;56;51;
64138;PMS5003;50435;43.700;-79.318;2023-06-10T11:13:57;58;54;
64138;PMS5003;50435;43.700;-79.318;2023-06-10T11:16:26;63;57;
64138;PMS5003;50435;43.700;-79.318;2023-06-10T11:18:54;51;49;
64138;PMS5003;50435;43.700;-79.318;2023-06-10T11:21:23;65;58;
64138;PMS5003;50435;43.700;-79.318;2023-06-10T11:23:51;58;55;
64138;PMS5003;50435;43.700;-79.318;2023-06-10T11:26:20;53;52;
64138;PMS5003;50435;43.700;-79.318;2023-06-10T11:29:03;58;55;
64138;PMS5003;50435;43.700;-79.318;2023-06-10T11:31:33;58;55;
64138;PMS5003;50435;43.700;-79.318;2023-06-10T11:34:05;59;51;
64138;PMS5003;50435;43.700;-79.318;2023-06-10T11:36:34;56;52;
64138;PMS5003;50435;43.700;-79.318;2023-06-10T11:39:05;55;49;
64138;PMS5003;50435;43.700;-79.318;2023-06-10T11:41:34;61;55;
64138;PMS5003;50435;43.700;-79.318;2023-06-10T11:44:03;61;52;
64138;PMS5003;50435;43.700;-79.318;2023-06-10T11:46:31;55;50;
64138;PMS5003;50435;43.700;-79.318;2023-06-10T11:49:00;52;49;
64138;PMS5003;50435;43.700;-79.318;2023-06-10T11:51:28;53;52;
64138;PMS5003;50435;43.700;-79.318;2023-06-10T11:53:58;55;50;
64138;PMS5003;50435;43.700;-79.318;2023-06-10T11:56:27;53;50;
64138;PMS5003;50435;43.700;-79.318;2023-06-10T11:58:55;61;56;
64138;PMS5003;50435;43.700;-79.318;2023-06-10T12:01:24;53;51;
64138;PMS5003;50435;43.700;-79.318;2023-06-10T12:03:56;53;51;
64138;PMS5003;50435;43.700;-79.318;2023-06-10T12:06:24;55;53;
64138;PMS5003;50435;43.700;-79.318;2023-06-10T12:08:53;55;51;
64138;PMS5003;50435;43.700;-79.318;2023-06-10T12:11:21;59;53;
64138;PMS5003;50435;43.700;-79.318;2023-06-10T12:13:49;52;51;
64138;PMS5003;50435;43.700;-79.318;2023-06-10T12:16:17;51;47;
64138;PMS5003;50435;43.700;-79.318;2023-06-10T12:18:46;56;48;
64138;PMS5003;50435;43.700;-79.318;2023-06-10T12:21:18;48;45;
64138;PMS5003;50435;43.700;-79.318;2023-06-10T12:24:02;53;50;
64138;PMS5003;50435;43.700;-79.318;2023-06-10T12:26:36;56;53;
64138;PMS5003;50435;43.700;-79.318;2023-06-10T12:29:15;48;44;
64138;PMS5003;50435;43.700;-79.318;2023-06-10T12:32:00;54;46;
64138;PMS5003;50435;43.700;-79.318;2023-06-10T12:34:30;53;49;
64138;PMS5003;50435;43.700;-79.318;2023-06-10T12:36:58;55;52;
64138;PMS5003;50435;43.700;-79.318;2023-06-10T12:39:26;53;46;
64138;PMS5003;50435;43.700;-79.318;2023-06-10T12:41:54;50;48;
64138;PMS5003;50435;43.700;-79.318;2023-06-10T12:44:29;55;52;
64138;PMS5003;50435;43.700;-79.318;2023-06-10T12:46:59;47;41;
64138;PMS5003;50435;43.700;-79.318;2023-06-10T12:49:28;50;47;
64138;PMS5003;50435;43.700;-79.318;2023-06-10T12:51:55;56;50;
64138;PMS5003;50435;43.700;-79.318;2023-06-10T12:54:22;49;47;
64138;PMS5003;50435;43.700;-79.318;2023-06-10T12:56:50;52;47;
64138;PMS5003;50435;43.700;-79.318;2023-06-10T12:59:18;51;48;
64138;PMS5003;50435;43.700;-79.318;2023-06-10T13:01:49;48;45;
64138;PMS5003;50435;43.700;-79.318;2023-06-10T13:04:17;51;47;
64138;PMS5003;50435;43.700;-79.318;2023-06-10T13:06:45;50;46;
64138;PMS5003;50435;43.700;-79.318;2023-06-10T13:09:13;48;47;
64138;PMS5003;50435;43.700;-79.318;2023-06-10T13:11:41;49;45;
64138;PMS5003;50435;43.700;-79.318;2023-06-10T13:14:09;46;41;
64138;PMS5003;50435;43.700;-79.318;2023-06-10T13:16:37;48;43;
64138;PMS5003;50435;43.700;-79.318;2023-06-10T13:19:05;49;47;
64138;PMS5003;50435;43.700;-79.318;2023-06-10T13:21:33;55;47;
64138;PMS5003;50435;43.700;-79.318;2023-06-10T13:24:01;48;45;
64138;PMS5003;50435;43.700;-79.318;2023-06-10T13:26:28;54;51;
64138;PMS5003;50435;43.700;-79.318;2023-06-10T13:28:56;44;41;
64138;PMS5003;50435;43.700;-79.318;2023-06-10T13:31:24;50;47;
64138;PMS5003;50435;43.700;-79.318;2023-06-10T13:33:51;54;48;
64138;PMS5003;50435;43.700;-79.318;2023-06-10T13:36:19;53;48;
64138;PMS5003;50435;43.700;-79.318;2023-06-10T13:38:46;48;43;
64138;PMS5003;50435;43.700;-79.318;2023-06-10T13:41:14;49;42;
64138;PMS5003;50435;43.700;-79.318;2023-06-10T13:43:42;49;42;
64138;PMS5003;50435;43.700;-79.318;2023-06-10T13:46:09;47;44;
64138;PMS5003;50435;43.700;-79.318;2023-06-10T13:48:36;45;42;
64138;PMS5003;50435;43.700;-79.318;2023-06-10T13:51:04;48;44;
64138;PMS5003;50435;43.700;-79.318;2023-06-10T13:53:32;38;37;
64138;PMS5003;50435;43.700;-79.318;2023-06-10T13:55:59;45;43;
64138;PMS5003;50435;43.700;-79.318;2023-06-10T13:58:26;41;37;
64138;PMS5003;50435;43.700;-79.318;2023-06-10T14:00:54;45;41;
64138;PMS5003;50435;43.700;-79.318;2023-06-10T14:03:22;41;40;
64138;PMS5003;50435;43.700;-79.318;2023-06-10T14:05:49;43;36;
64138;PMS5003;50435;43.700;-79.318;2023-06-10T14:08:17;39;38;
64138;PMS5003;50435;43.700;-79.318;2023-06-10T14:10:45;38;34;
64138;PMS5003;50435;43.700;-79.318;2023-06-10T14:13:12;37;36;
64138;PMS5003;50435;43.700;-79.318;2023-06-10T14:15:40;34;33;
64138;PMS5003;50435;43.700;-79.318;2023-06-10T14:18:07;33;30;
64138;PMS5003;50435;43.700;-79.318;2023-06-10T14:20:34;38;36;
64138;PMS5003;50435;43.700;-79.318;2023-06-10T14:23:02;34;34;
64138;PMS5003;50435;43.700;-79.318;2023-06-10T14:25:29;36;35;
64138;PMS5003;50435;43.700;-79.318;2023-06-10T14:27:57;36;31;
64138;PMS5003;50435;43.700;-79.318;2023-06-10T14:30:24;35;31;
64138;PMS5003;50435;43.700;-79.318;2023-06-10T14:32:52;39;36;
64138;PMS5003;50435;43.700;-79.318;2023-06-10T14:35:19;33;28;
64138;PMS5003;50435;43.700;-79.318;2023-06-10T14:37:46;33;32;
64138;PMS5003;50435;43.700;-79.318;2023-06-10T14:40:13;30;28;
64138;PMS5003;50435;43.700;-79.318;2023-06-10T14:42:41;30;28;
64138;PMS5003;50435;43.700;-79.318;2023-06-10T14:45:09;36;35;
64138;PMS5003;50435;43.700;-79.318;2023-06-10T14:47:37;36;35;
64138;PMS5003;50435;43.700;-79.318;2023-06-10T14:50:05;35;31;
64138;PMS5003;50435;43.700;-79.318;2023-06-10T14:52:33;30;29;
64138;PMS5003;50435;43.700;-79.318;2023-06-10T14:55:01;32;30;
64138;PMS5003;50435;43.700;-79.318;2023-06-10T14:57:28;32;31;
64138;PMS5003;50435;43.700;-79.318;2023-06-10T14:59:55;35;34;
64138;PMS5003;50435;43.700;-79.318;2023-06-10T15:02:23;33;31;
64138;PMS5003;50435;43.700;-79.318;2023-06-10T15:04:50;33;29;
64138;PMS5003;50435;43.700;-79.318;2023-06-10T15:07:17;32;31;
64138;PMS5003;50435;43.700;-79.318;2023-06-10T15:09:45;31;29;
64138;PMS5003;50435;43.700;-79.318;2023-06-10T15:12:13;28;28;
64138;PMS5003;50435;43.700;-79.318;2023-06-10T15:14:40;28;28;
64138;PMS5003;50435;43.700;-79.318;2023-06-10T15:17:07;27;25;
64138;PMS5003;50435;43.700;-79.318;2023-06-10T15:19:35;33;28;
64138;PMS5003;50435;43.700;-79.318;2023-06-10T15:22:02;28;27;
64138;PMS5003;50435;43.700;-79.318;2023-06-10T15:24:30;33;30;
64138;PMS5003;50435;43.700;-79.318;2023-06-10T15:26:58;29;29;
64138;PMS5003;50435;43.700;-79.318;2023-06-10T15:29:25;31;31;
64138;PMS5003;50435;43.700;-79.318;2023-06-10T15:31:53;33;30;
64138;PMS5003;50435;43.700;-79.318;2023-06-10T15:34:20;26;26;
64138;PMS5003;50435;43.700;-79.318;2023-06-10T15:36:48;34;29;
64138;PMS5003;50435;43.700;-79.318;2023-06-10T15:39:15;28;28;
64138;PMS5003;50435;43.700;-79.318;2023-06-10T15:41:42;32;28;
64138;PMS5003;50435;43.700;-79.318;2023-06-10T15:44:10;30;29;
64138;PMS5003;50435;43.700;-79.318;2023-06-10T15:46:38;35;27;
64138;PMS5003;50435;43.700;-79.318;2023-06-10T15:49:05;34;31;
64138;PMS5003;50435;43.700;-79.318;2023-06-10T15:51:33;34;32;
64138;PMS5003;50435;43.700;-79.318;2023-06-10T15:54:01;33;32;